Time;durP1;ratioP1;P1;durP2;ratioP2;P2;SDS_P1;SDS_P2;PMS_P1;PMS_P2;Temp;Humidity;BMP_temperature;BMP_pressure;BME280_temperature;BME280_humidity;BME280_pressure;Samples;Min_cycle;Max_cycle;Signal;HPM_P1;HPM_P2
2022/11/03 00:01:11;;;;;;;;;;;;;;;9.41;74.73;98750.41;7395722;19;19919;-79
2022/11/03 00:03:38;;;;;;;;;;;;;;;9.34;75.38;98751.94;7391184;19;20030;-78
2022/11/03 00:06:05;;;;;;;;;;;;;;;9.49;75.12;98753.19;7390373;19;20352;-79
2022/11/03 00:08:32;;;;;;;;;;;;;;;9.52;74.92;98752.06;7389183;19;19918;-79
2022/11/03 00:11:06;;;;;;;;;;;;;;;9.48;74.92;98751.53;7387073;19;19923;-79
2022/11/03 00:13:36;;;;;;;;;;;;;;;9.48;75.19;98750.66;7388000;19;19921;-79
2022/11/03 00:16:03;;;;;;;;;;;;;;;9.37;75.72;98746.38;7390219;19;20295;-78
2022/11/03 00:18:30;;;;;;;;;;;;;;;9.29;75.84;98748.88;7391168;19;19935;-79
2022/11/03 00:21:14;;;;;;;;;;;;;;;9.37;75.37;98744.59;7389997;19;20460;-79
2022/11/03 00:23:45;;;;;;;;;;;;;;;9.33;75.05;98747.63;7388942;19;19938;-80
2022/11/03 00:26:15;;;;;;;;;;;;;;;9.36;74.83;98744.72;7387532;19;19919;-78
2022/11/03 00:28:42;;;;;;;;;;;;;;;9.30;74.86;98740.81;7388994;19;19911;-79
2022/11/03 00:31:13;;;;;;;;;;;;;;;9.23;75.14;98734.41;7390026;19;19919;-78
2022/11/03 00:33:40;;;;;;;;;;;;;;;9.19;75.22;98733.88;7387084;19;19922;-79
2022/11/03 00:36:08;;;;;;;;;;;;;;;9.15;75.31;98732.47;7388906;19;19927;-79
2022/11/03 00:38:36;;;;;;;;;;;;;;;9.10;75.50;98721.47;7389508;19;19934;-79
2022/11/03 00:41:03;;;;;;;;;;;;;;;9.08;75.35;98718.13;7388897;19;19922;-79
2022/11/03 00:43:31;;;;;;;;;;;;;;;8.93;75.85;98709.81;7383608;19;19911;-78
2022/11/03 00:45:58;;;;;;;;;;;;;;;9.04;75.37;98708.84;7387647;19;19915;-79
2022/11/03 00:48:33;;;;;;;;;;;;;;;9.03;75.46;98704.56;7393383;19;20487;-79
2022/11/03 00:51:03;;;;;;;;;;;;;;;9.09;75.38;98697.88;7390478;19;19927;-78
2022/11/03 00:53:30;;;;;;;;;;;;;;;9.08;74.81;98696.19;7389501;19;19967;-80
2022/11/03 00:55:56;;;;;;;;;;;;;;;9.10;74.18;98695.09;7391413;19;19922;-79
2022/11/03 00:58:23;;;;;;;;;;;;;;;9.03;74.34;98701.91;7388420;19;20030;-78
2022/11/03 01:00:49;;;;;;;;;;;;;;;9.02;73.80;98702.88;7388351;19;19927;-79
2022/11/03 01:03:16;;;;;;;;;;;;;;;8.87;74.29;98694.50;7387964;19;19922;-79
2022/11/03 01:08:32;;;;;;;;;;;;;;;8.65;74.38;98686.84;7389932;19;19939;-79
2022/11/03 01:13:50;;;;;;;;;;;;;;;8.59;75.69;98679.50;7387404;19;19918;-79
2022/11/03 01:16:17;;;;;;;;;;;;;;;8.74;75.65;98681.59;7387507;19;20005;-78
2022/11/03 01:18:43;;;;;;;;;;;;;;;8.73;75.96;98676.44;7388673;19;19919;-78
2022/11/03 01:21:10;;;;;;;;;;;;;;;8.72;76.40;98677.44;7388102;19;19934;-78
2022/11/03 01:23:36;;;;;;;;;;;;;;;8.73;76.34;98679.91;7387746;19;19926;-80
2022/11/03 01:26:07;;;;;;;;;;;;;;;8.81;76.15;98670.50;7391245;19;19915;-78
2022/11/03 01:28:34;;;;;;;;;;;;;;;8.66;76.92;98668.25;7388349;19;19918;-79
2022/11/03 01:31:04;;;;;;;;;;;;;;;8.70;76.83;98661.72;7387734;19;20408;-79
2022/11/03 01:33:31;;;;;;;;;;;;;;;8.79;76.36;98660.94;7381063;19;19926;-79
2022/11/03 01:35:57;;;;;;;;;;;;;;;8.66;76.82;98656.84;7385029;19;19927;-79
2022/11/03 01:38:24;;;;;;;;;;;;;;;8.74;76.85;98652.59;7389415;19;19947;-80
2022/11/03 01:40:50;;;;;;;;;;;;;;;8.74;76.25;98657.00;7390923;19;19923;-78
2022/11/03 01:43:18;;;;;;;;;;;;;;;8.76;76.46;98655.91;7384767;19;19915;-78
2022/11/03 01:45:45;;;;;;;;;;;;;;;8.84;75.65;98649.09;7392893;19;19915;-78
2022/11/03 01:48:11;;;;;;;;;;;;;;;8.81;75.83;98650.22;7389567;19;20587;-79
2022/11/03 01:50:38;;;;;;;;;;;;;;;8.77;75.97;98644.38;7385703;19;19947;-79
2022/11/03 01:53:05;;;;;;;;;;;;;;;8.69;76.12;98638.97;7387543;19;19914;-79
2022/11/03 01:55:35;;;;;;;;;;;;;;;8.77;75.67;98631.19;7390294;19;19919;-79
2022/11/03 01:58:03;;;;;;;;;;;;;;;8.75;75.77;98633.13;7390820;19;19929;-78
2022/11/03 02:00:29;;;;;;;;;;;;;;;8.90;75.27;98630.94;7390880;19;19945;-77
2022/11/03 02:02:56;;;;;;;;;;;;;;;8.96;74.93;98630.38;7388518;19;19946;-78
2022/11/03 02:05:22;;;;;;;;;;;;;;;8.85;75.37;98625.25;7385110;19;20721;-79
2022/11/03 02:07:55;;;;;;;;;;;;;;;8.65;75.80;98624.38;7388528;19;19949;-78
2022/11/03 02:10:22;;;;;;;;;;;;;;;8.71;75.70;98615.91;7390344;19;19939;-78
2022/11/03 02:12:48;;;;;;;;;;;;;;;8.63;75.32;98617.56;7388684;19;19918;-79
2022/11/03 02:15:15;;;;;;;;;;;;;;;8.67;75.00;98618.97;7389562;19;20423;-77
2022/11/03 02:17:42;;;;;;;;;;;;;;;8.62;74.31;98608.84;7388561;19;19943;-78
2022/11/03 02:20:11;;;;;;;;;;;;;;;8.53;74.39;98614.91;7389239;19;19927;-80
2022/11/03 02:22:56;;;;;;;;;;;;;;;8.51;74.42;98622.16;7385863;19;19925;-76
2022/11/03 02:25:41;;;;;;;;;;;;;;;8.38;75.27;98611.00;7386420;19;19927;-78
2022/11/03 02:28:08;;;;;;;;;;;;;;;8.39;76.05;98610.88;7391159;19;19924;-78
2022/11/03 02:30:41;;;;;;;;;;;;;;;8.40;76.25;98602.03;7389626;19;19923;-78
2022/11/03 02:33:13;;;;;;;;;;;;;;;8.37;76.49;98599.59;7387690;19;19943;-79
2022/11/03 02:35:41;;;;;;;;;;;;;;;8.40;75.98;98601.16;7387859;19;19923;-80
2022/11/03 02:38:08;;;;;;;;;;;;;;;8.44;75.17;98595.47;7388182;19;19911;-79
2022/11/03 02:40:36;;;;;;;;;;;;;;;8.50;74.50;98596.75;7386681;19;19922;-77
2022/11/03 02:43:03;;;;;;;;;;;;;;;8.57;73.89;98603.13;7386077;19;19964;-78
2022/11/03 02:45:30;;;;;;;;;;;;;;;8.31;74.79;98597.50;7388209;19;19982;-77
2022/11/03 02:47:57;;;;;;;;;;;;;;;8.19;75.60;98594.16;7389985;19;20255;-77
2022/11/03 02:50:28;;;;;;;;;;;;;;;8.14;75.97;98594.56;7390265;19;19919;-79
2022/11/03 02:52:54;;;;;;;;;;;;;;;8.14;76.94;98591.94;7394804;19;19918;-79
2022/11/03 02:55:30;;;;;;;;;;;;;;;8.23;76.80;98586.81;7395320;19;19923;-78
2022/11/03 02:58:15;;;;;;;;;;;;;;;8.46;76.10;98582.19;7391850;19;19926;-78
2022/11/03 03:00:45;;;;;;;;;;;;;;;8.34;76.29;98573.50;7395453;19;19915;-76
2022/11/03 03:03:13;;;;;;;;;;;;;;;8.41;75.86;98565.94;7394182;19;19954;-77
2022/11/03 03:05:40;;;;;;;;;;;;;;;8.33;76.10;98569.22;7395147;19;20393;-77
2022/11/03 03:08:07;;;;;;;;;;;;;;;8.30;76.47;98558.97;7396490;19;20258;-78
2022/11/03 03:10:41;;;;;;;;;;;;;;;8.47;75.48;98549.56;7395997;19;20367;-77
2022/11/03 03:13:08;;;;;;;;;;;;;;;8.22;76.20;98550.91;7391148;19;20420;-77
2022/11/03 03:15:40;;;;;;;;;;;;;;;8.23;76.01;98542.84;7393796;19;20346;-79
2022/11/03 03:18:11;;;;;;;;;;;;;;;8.22;75.77;98535.91;7396743;19;19919;-79
2022/11/03 03:20:55;;;;;;;;;;;;;;;8.13;76.43;98540.19;7393857;19;19915;-79
2022/11/03 03:23:22;;;;;;;;;;;;;;;8.07;76.86;98532.00;7394686;19;19956;-80
2022/11/03 03:26:08;;;;;;;;;;;;;;;8.13;76.91;98527.00;7395615;19;19915;-79
2022/11/03 03:28:39;;;;;;;;;;;;;;;8.08;76.71;98523.97;7394421;19;19914;-78
2022/11/03 03:31:07;;;;;;;;;;;;;;;8.13;76.86;98526.19;7394074;19;19957;-78
2022/11/03 03:33:34;;;;;;;;;;;;;;;8.06;76.69;98519.81;7392988;19;19967;-78
2022/11/03 03:36:01;;;;;;;;;;;;;;;7.93;76.68;98514.78;7394480;19;19921;-76
2022/11/03 03:38:31;;;;;;;;;;;;;;;8.14;76.50;98517.31;7394702;19;19935;-79
2022/11/03 03:40:58;;;;;;;;;;;;;;;8.14;75.59;98509.41;7394045;19;19932;-77
2022/11/03 03:43:24;;;;;;;;;;;;;;;8.11;75.39;98507.06;7391757;19;19923;-78
2022/11/03 03:45:51;;;;;;;;;;;;;;;8.17;75.33;98514.41;7391322;19;19915;-77
2022/11/03 03:48:18;;;;;;;;;;;;;;;8.13;75.82;98511.19;7392218;19;19943;-79
2022/11/03 03:50:45;;;;;;;;;;;;;;;8.01;76.42;98508.84;7392441;19;19935;-78
2022/11/03 03:53:12;;;;;;;;;;;;;;;8.03;76.30;98505.09;7391255;19;20276;-79
2022/11/03 03:55:39;;;;;;;;;;;;;;;8.01;76.76;98496.50;7393971;19;19926;-77
2022/11/03 03:58:07;;;;;;;;;;;;;;;7.97;76.62;98483.72;7393520;19;19938;-77
2022/11/03 04:00:34;;;;;;;;;;;;;;;7.99;77.12;98487.06;7392124;19;19922;-78
2022/11/03 04:03:01;;;;;;;;;;;;;;;7.99;77.08;98476.53;7390615;19;20326;-78
2022/11/03 04:05:27;;;;;;;;;;;;;;;7.99;77.27;98476.53;7386246;19;19919;-78
2022/11/03 04:07:54;;;;;;;;;;;;;;;8.12;76.51;98472.66;7391910;19;19935;-79
2022/11/03 04:10:21;;;;;;;;;;;;;;;8.19;76.01;98472.09;7392443;19;19957;-78
2022/11/03 04:23:49;;;;;;;;;;;;;;;8.15;77.04;98445.19;7390913;19;20332;-77
2022/11/03 04:26:17;;;;;;;;;;;;;;;8.16;76.54;98427.56;7392786;19;19923;-79
2022/11/03 04:28:44;;;;;;;;;;;;;;;8.04;76.32;98437.44;7392501;19;19919;-77
2022/11/03 04:31:11;;;;;;;;;;;;;;;8.13;75.66;98431.31;7389575;19;19922;-78
2022/11/03 04:33:38;;;;;;;;;;;;;;;7.95;75.28;98430.34;7391681;19;19925;-78
2022/11/03 04:36:24;;;;;;;;;;;;;;;7.74;75.26;98431.31;7390152;19;20290;-77
2022/11/03 04:38:51;;;;;;;;;;;;;;;7.86;75.08;98426.72;7390448;19;20336;-79
2022/11/03 04:41:27;;;;;;;;;;;;;;;7.58;76.11;98420.44;7392371;19;19918;-79
2022/11/03 04:43:54;;;;;;;;;;;;;;;7.44;76.34;98427.75;7392190;19;19923;-79
2022/11/03 04:46:25;;;;;;;;;;;;;;;7.64;75.70;98425.19;7392956;19;19922;-79
2022/11/03 04:48:51;;;;;;;;;;;;;;;7.55;76.63;98412.81;7391895;19;20272;-77
2022/11/03 04:51:19;;;;;;;;;;;;;;;7.71;76.17;98415.75;7391880;19;19954;-78
2022/11/03 04:53:48;;;;;;;;;;;;;;;7.75;76.61;98417.16;7387255;19;19918;-77
2022/11/03 04:56:15;;;;;;;;;;;;;;;7.50;76.33;98412.38;7390224;19;19929;-77
2022/11/03 04:58:42;;;;;;;;;;;;;;;7.55;76.51;98412.81;7393381;19;19918;-78
2022/11/03 05:01:10;;;;;;;;;;;;;;;7.49;77.12;98406.31;7390198;19;19922;-78
2022/11/03 05:03:37;;;;;;;;;;;;;;;7.56;76.92;98401.34;7389570;19;19923;-76
2022/11/03 05:06:11;;;;;;;;;;;;;;;7.64;76.89;98394.41;7390644;19;19926;-79
2022/11/03 05:08:37;;;;;;;;;;;;;;;7.65;77.17;98392.59;7387655;19;19911;-78
2022/11/03 05:11:08;;;;;;;;;;;;;;;7.69;77.03;98394.00;7388030;19;19911;-78
2022/11/03 05:13:35;;;;;;;;;;;;;;;7.67;76.48;98394.13;7387173;19;21043;-78
2022/11/03 05:16:02;;;;;;;;;;;;;;;7.60;76.94;98387.75;7391535;19;20275;-78
2022/11/03 05:18:34;;;;;;;;;;;;;;;7.64;76.49;98391.78;7390320;19;19953;-77
2022/11/03 05:21:05;;;;;;;;;;;;;;;7.69;76.21;98386.13;7390884;19;19958;-77
2022/11/03 05:23:43;;;;;;;;;;;;;;;7.76;75.63;98381.94;7388996;19;19936;-77
2022/11/03 05:26:19;;;;;;;;;;;;;;;7.63;75.37;98379.56;7388154;19;20274;-77
2022/11/03 05:28:48;;;;;;;;;;;;;;;7.63;75.39;98381.38;7388125;19;19919;-78
2022/11/03 05:31:23;;;;;;;;;;;;;;;7.63;75.25;98376.09;7390230;19;20349;-79
2022/11/03 05:33:50;;;;;;;;;;;;;;;7.70;75.13;98372.78;7388153;19;19922;-78
2022/11/03 05:36:18;;;;;;;;;;;;;;;7.62;75.41;98369.19;7388859;19;20266;-76
2022/11/03 05:38:45;;;;;;;;;;;;;;;7.61;76.14;98364.88;7389626;19;19915;-78
2022/11/03 05:41:22;;;;;;;;;;;;;;;7.63;75.99;98360.31;7386923;19;19926;-77
2022/11/03 05:43:53;;;;;;;;;;;;;;;7.60;76.22;98353.53;7384422;19;19919;-77
2022/11/03 05:46:19;;;;;;;;;;;;;;;7.47;76.28;98342.41;7386327;19;19923;-77
2022/11/03 05:48:48;;;;;;;;;;;;;;;7.46;76.77;98341.59;7388602;19;19922;-77
2022/11/03 05:51:17;;;;;;;;;;;;;;;7.44;76.94;98337.44;7390256;19;19930;-77
2022/11/03 05:53:45;;;;;;;;;;;;;;;7.44;76.98;98330.38;7388432;19;20425;-77
2022/11/03 05:56:16;;;;;;;;;;;;;;;7.44;77.46;98335.63;7387528;19;19918;-77
2022/11/03 05:58:43;;;;;;;;;;;;;;;7.44;77.37;98333.00;7386865;19;20037;-77
2022/11/03 06:01:11;;;;;;;;;;;;;;;7.52;77.33;98332.31;7384718;19;20489;-78
2022/11/03 06:03:38;;;;;;;;;;;;;;;7.48;77.42;98334.41;7386232;19;19919;-78
2022/11/03 06:06:12;;;;;;;;;;;;;;;7.55;77.40;98334.66;7387128;19;19919;-78
2022/11/03 06:08:39;;;;;;;;;;;;;;;7.47;77.27;98335.34;7389328;19;19923;-77
2022/11/03 06:11:25;;;;;;;;;;;;;;;7.50;77.28;98333.41;7387991;19;19951;-78
2022/11/03 06:13:53;;;;;;;;;;;;;;;7.46;77.43;98333.69;7387871;19;19930;-77
2022/11/03 06:16:19;;;;;;;;;;;;;;;7.50;77.49;98338.69;7385692;19;19919;-77
2022/11/03 06:18:46;;;;;;;;;;;;;;;7.56;77.82;98331.09;7387275;19;20274;-77
2022/11/03 06:21:15;;;;;;;;;;;;;;;7.55;77.55;98325.94;7388543;19;19919;-78
2022/11/03 06:23:42;;;;;;;;;;;;;;;7.46;77.41;98320.53;7386473;19;19919;-77
2022/11/03 06:26:12;;;;;;;;;;;;;;;7.43;77.75;98317.34;7391606;19;20293;-77
2022/11/03 06:28:38;;;;;;;;;;;;;;;7.45;78.00;98303.09;7395019;19;19953;-76
2022/11/03 06:31:20;;;;;;;;;;;;;;;7.46;78.24;98296.03;7393905;19;19923;-75
2022/11/03 06:33:49;;;;;;;;;;;;;;;7.53;78.41;98296.28;7391842;19;19935;-76
2022/11/03 06:36:17;;;;;;;;;;;;;;;7.63;78.18;98282.16;7394181;19;20342;-77
2022/11/03 06:38:45;;;;;;;;;;;;;;;7.70;78.28;98282.44;7395327;19;19921;-77
2022/11/03 06:41:19;;;;;;;;;;;;;;;7.75;78.81;98287.28;7394488;19;19939;-77
2022/11/03 06:43:46;;;;;;;;;;;;;;;8.04;77.24;98289.88;7392028;19;19922;-78
2022/11/03 06:46:14;;;;;;;;;;;;;;;7.90;77.23;98299.06;7397573;19;19922;-78
2022/11/03 06:48:41;;;;;;;;;;;;;;;8.00;76.88;98288.50;7394169;19;20295;-77
2022/11/03 06:51:20;;;;;;;;;;;;;;;8.12;76.30;98292.63;7392733;19;20342;-77
2022/11/03 06:53:47;;;;;;;;;;;;;;;8.05;76.68;98299.44;7394447;19;19947;-79
2022/11/03 06:56:23;;;;;;;;;;;;;;;8.18;76.69;98297.31;7394789;19;19919;-77
2022/11/03 06:58:53;;;;;;;;;;;;;;;8.33;76.46;98298.53;7395843;19;19914;-78
2022/11/03 07:01:20;;;;;;;;;;;;;;;8.31;76.24;98295.22;7394796;19;19925;-77
2022/11/03 07:03:51;;;;;;;;;;;;;;;8.29;76.26;98297.19;7392903;19;20000;-78
2022/11/03 07:06:26;;;;;;;;;;;;;;;8.24;76.02;98302.06;7391474;19;20753;-77
2022/11/03 07:08:53;;;;;;;;;;;;;;;8.09;76.42;98301.66;7392688;19;20254;-77
2022/11/03 07:11:30;;;;;;;;;;;;;;;8.12;76.43;98295.28;7393661;19;19926;-76
2022/11/03 07:14:18;;;;;;;;;;;;;;;8.17;76.52;98285.13;7389585;19;19915;-77
2022/11/03 07:16:49;;;;;;;;;;;;;;;8.36;76.36;98276.34;7395943;19;19914;-77
2022/11/03 07:19:17;;;;;;;;;;;;;;;8.49;76.21;98281.31;7394485;19;19965;-77
2022/11/03 07:21:44;;;;;;;;;;;;;;;8.49;76.63;98281.31;7392790;19;20455;-77
2022/11/03 07:24:25;;;;;;;;;;;;;;;8.57;76.73;98274.34;7392306;19;20346;-76
2022/11/03 07:27:01;;;;;;;;;;;;;;;8.76;76.39;98262.03;7394759;19;19940;-77
2022/11/03 07:29:28;;;;;;;;;;;;;;;8.83;76.67;98260.47;7393781;19;20283;-77
2022/11/03 07:31:56;;;;;;;;;;;;;;;8.85;76.95;98252.44;7393987;19;19915;-77
2022/11/03 07:34:23;;;;;;;;;;;;;;;8.95;77.08;98248.75;7392383;19;19926;-77
2022/11/03 07:36:49;;;;;;;;;;;;;;;9.03;76.85;98258.56;7392032;19;19922;-77
2022/11/03 07:39:21;;;;;;;;;;;;;;;9.22;76.93;98252.31;7390187;19;19915;-78
2022/11/03 07:41:48;;;;;;;;;;;;;;;9.41;76.67;98243.41;7393417;19;19926;-78
2022/11/03 07:44:16;;;;;;;;;;;;;;;9.37;75.90;98236.75;7391264;19;19919;-79
2022/11/03 07:46:42;;;;;;;;;;;;;;;9.40;75.80;98239.97;7394603;19;19955;-78
2022/11/03 07:49:35;;;;;;;;;;;;;;;9.40;75.20;98233.81;7395158;19;19915;-79
2022/11/03 07:52:04;;;;;;;;;;;;;;;9.58;74.82;98234.63;7396223;19;19924;-78
2022/11/03 07:54:31;;;;;;;;;;;;;;;9.65;74.28;98232.22;7395855;19;19914;-78
2022/11/03 07:56:59;;;;;;;;;;;;;;;9.66;74.41;98226.81;7389146;19;19947;-78
2022/11/03 07:59:30;;;;;;;;;;;;;;;9.71;74.67;98231.59;7385320;19;19918;-78
2022/11/03 08:01:58;;;;;;;;;;;;;;;9.78;74.99;98230.00;7391236;19;19914;-79
2022/11/03 08:04:25;;;;;;;;;;;;;;;9.82;75.23;98233.16;7389400;19;19915;-78
2022/11/03 08:06:52;;;;;;;;;;;;;;;10.02;74.07;98221.41;7390950;19;19978;-77
2022/11/03 08:09:18;;;;;;;;;;;;;;;10.12;73.71;98223.97;7390614;19;20273;-78
2022/11/03 08:11:45;;;;;;;;;;;;;;;10.04;73.89;98223.91;7391064;19;19943;-78
2022/11/03 08:14:12;;;;;;;;;;;;;;;10.09;74.06;98219.00;7385101;19;20274;-78
2022/11/03 08:16:38;;;;;;;;;;;;;;;10.05;74.59;98210.53;7390299;19;19919;-78
2022/11/03 08:19:05;;;;;;;;;;;;;;;10.28;73.77;98210.03;7391917;19;19955;-78
2022/11/03 08:21:32;;;;;;;;;;;;;;;10.13;73.47;98201.81;7390826;19;19934;-78
2022/11/03 08:23:58;;;;;;;;;;;;;;;10.35;73.82;98195.19;7392424;19;20461;-78
2022/11/03 08:26:25;;;;;;;;;;;;;;;10.51;73.96;98187.31;7393460;19;20540;-78
2022/11/03 08:28:52;;;;;;;;;;;;;;;10.74;74.21;98184.06;7388219;19;19934;-76
2022/11/03 08:31:18;;;;;;;;;;;;;;;10.85;73.95;98175.00;7395018;19;19918;-76
2022/11/03 08:33:45;;;;;;;;;;;;;;;11.07;73.75;98163.81;7395109;19;19939;-78
2022/11/03 08:36:19;;;;;;;;;;;;;;;11.20;73.18;98160.66;7395573;19;19930;-79
2022/11/03 08:38:47;;;;;;;;;;;;;;;11.31;72.69;98156.84;7395647;19;20352;-80
2022/11/03 08:41:14;;;;;;;;;;;;;;;11.40;71.37;98154.06;7394737;19;19944;-80
2022/11/03 08:43:40;;;;;;;;;;;;;;;11.53;71.75;98158.84;7393430;19;19926;-79
2022/11/03 08:46:08;;;;;;;;;;;;;;;11.50;71.74;98148.56;7394907;19;19918;-79
2022/11/03 08:48:44;;;;;;;;;;;;;;;11.63;71.98;98142.75;7390601;19;20322;-81
2022/11/03 08:51:12;;;;;;;;;;;;;;;11.68;71.55;98143.09;7397947;19;19923;-79
2022/11/03 08:53:41;;;;;;;;;;;;;;;11.82;71.36;98134.47;7397342;19;19947;-79
2022/11/03 08:56:08;;;;;;;;;;;;;;;11.91;70.86;98132.63;7403897;19;19918;-79
2022/11/03 08:58:39;;;;;;;;;;;;;;;12.02;70.96;98134.09;7402490;19;19922;-80
2022/11/03 09:01:06;;;;;;;;;;;;;;;11.99;71.02;98127.31;7399811;19;19939;-78
2022/11/03 09:03:33;;;;;;;;;;;;;;;12.23;70.80;98129.03;7395528;19;19939;-77
2022/11/03 09:06:00;;;;;;;;;;;;;;;12.30;70.55;98126.53;7394404;19;19983;-81
2022/11/03 09:08:27;;;;;;;;;;;;;;;12.37;70.83;98124.81;7394933;19;19940;-80
2022/11/03 09:11:13;;;;;;;;;;;;;;;12.48;70.36;98127.09;7392314;19;19974;-80
2022/11/03 09:13:40;;;;;;;;;;;;;;;12.57;69.80;98127.88;7391671;19;19918;-81
2022/11/03 09:16:07;;;;;;;;;;;;;;;12.51;70.12;98132.06;7390750;19;19939;-80
2022/11/03 09:18:33;;;;;;;;;;;;;;;12.42;69.77;98129.63;7391498;19;20362;-79
2022/11/03 09:21:00;;;;;;;;;;;;;;;12.52;70.09;98127.56;7388936;19;19938;-81
2022/11/03 09:23:26;;;;;;;;;;;;;;;12.62;70.53;98125.53;7389333;19;19907;-81
2022/11/03 09:25:53;;;;;;;;;;;;;;;12.80;70.42;98119.13;7393581;19;20394;-80
2022/11/03 09:28:20;;;;;;;;;;;;;;;12.84;69.85;98120.41;7389059;19;19915;-78
2022/11/03 09:30:46;;;;;;;;;;;;;;;12.96;69.66;98114.53;7393288;19;19918;-80
2022/11/03 09:33:13;;;;;;;;;;;;;;;13.02;69.59;98114.81;7388124;19;19915;-80
2022/11/03 09:35:40;;;;;;;;;;;;;;;13.10;68.93;98112.09;7389414;19;20371;-79
2022/11/03 09:38:07;;;;;;;;;;;;;;;13.22;69.13;98107.19;7388607;19;19947;-79
2022/11/03 09:40:34;;;;;;;;;;;;;;;13.16;68.87;98098.09;7388890;19;20344;-79
2022/11/03 09:43:02;;;;;;;;;;;;;;;13.20;69.54;98094.09;7385713;19;19922;-77
2022/11/03 09:45:28;;;;;;;;;;;;;;;13.35;69.36;98092.34;7389874;19;19919;-79
2022/11/03 09:47:55;;;;;;;;;;;;;;;13.39;68.65;98090.94;7388787;19;19939;-81
2022/11/03 09:50:22;;;;;;;;;;;;;;;13.50;68.09;98094.16;7388044;19;20325;-80
2022/11/03 09:52:50;;;;;;;;;;;;;;;13.58;67.97;98094.91;7389863;19;19911;-79
2022/11/03 09:55:19;;;;;;;;;;;;;;;13.57;66.99;98082.63;7387550;19;20529;-80
2022/11/03 09:57:45;;;;;;;;;;;;;;;13.67;66.76;98073.59;7390879;19;19939;-78
2022/11/03 10:00:14;;;;;;;;;;;;;;;13.61;67.35;98077.78;7394370;19;19915;-79
2022/11/03 10:02:42;;;;;;;;;;;;;;;13.62;66.72;98071.47;7396735;19;19918;-80
2022/11/03 10:05:11;;;;;;;;;;;;;;;13.60;66.10;98062.84;7396081;19;19935;-78
2022/11/03 10:07:38;;;;;;;;;;;;;;;13.68;65.40;98051.31;7397997;19;20352;-78
2022/11/03 10:10:05;;;;;;;;;;;;;;;13.74;65.27;98058.53;7395490;19;22012;-79
2022/11/03 10:12:34;;;;;;;;;;;;;;;13.60;64.82;98058.34;7396088;19;19915;-79
2022/11/03 10:15:01;;;;;;;;;;;;;;;13.69;64.59;98048.47;7398667;19;19934;-78
2022/11/03 10:17:28;;;;;;;;;;;;;;;13.66;64.92;98051.47;7402621;19;20243;-78
2022/11/03 10:19:55;;;;;;;;;;;;;;;13.81;64.81;98051.47;7395706;19;19940;-78
2022/11/03 10:22:22;;;;;;;;;;;;;;;13.80;64.51;98047.19;7396726;19;20015;-78
2022/11/03 10:24:49;;;;;;;;;;;;;;;13.71;64.86;98040.28;7405775;19;19922;-79
2022/11/03 10:27:19;;;;;;;;;;;;;;;13.79;64.38;98045.50;7393920;19;19926;-78
2022/11/03 10:30:06;;;;;;;;;;;;;;;13.84;63.64;98040.47;7390785;19;19922;-79
2022/11/03 10:32:33;;;;;;;;;;;;;;;13.91;63.88;98040.56;7391467;19;19927;-78
2022/11/03 10:35:01;;;;;;;;;;;;;;;14.10;63.86;98033.84;7388837;19;19931;-79
2022/11/03 10:37:28;;;;;;;;;;;;;;;14.17;63.98;98032.91;7392292;19;19919;-79
2022/11/03 10:39:55;;;;;;;;;;;;;;;14.24;64.68;98022.31;7393026;19;19915;-79
2022/11/03 10:42:29;;;;;;;;;;;;;;;14.22;63.26;98019.06;7391368;19;19943;-79
2022/11/03 10:45:21;;;;;;;;;;;;;;;14.42;64.04;98012.09;7389121;19;19922;-79
2022/11/03 10:48:01;;;;;;;;;;;;;;;14.52;63.44;98005.66;7394109;19;19922;-79
2022/11/03 10:50:28;;;;;;;;;;;;;;;14.56;63.46;97993.63;7395796;19;19919;-80
2022/11/03 10:52:55;;;;;;;;;;;;;;;14.56;63.50;97994.47;7394798;19;19926;-77
2022/11/03 10:55:22;;;;;;;;;;;;;;;14.54;62.91;97998.34;7399656;19;19922;-79
2022/11/03 10:57:57;;;;;;;;;;;;;;;14.52;63.42;97984.34;7395904;19;19927;-78
2022/11/03 11:00:24;;;;;;;;;;;;;;;14.47;62.61;97975.09;7392350;19;19923;-78
2022/11/03 11:02:55;;;;;;;;;;;;;;;14.50;62.86;97984.53;7391453;19;19918;-80
2022/11/03 11:05:22;;;;;;;;;;;;;;;14.61;62.89;97977.91;7396555;19;19919;-79
2022/11/03 11:07:50;;;;;;;;;;;;;;;14.66;63.19;97964.84;7398469;19;19934;-77
2022/11/03 11:10:18;;;;;;;;;;;;;;;14.55;63.29;97971.50;7401587;19;19911;-79
2022/11/03 11:13:04;;;;;;;;;;;;;;;14.55;63.59;97965.38;7395607;19;20302;-78
2022/11/03 11:15:38;;;;;;;;;;;;;;;14.61;63.33;97956.59;7394863;19;19914;-77
2022/11/03 11:18:04;;;;;;;;;;;;;;;14.57;62.95;97953.50;7389742;19;19923;-77
2022/11/03 11:20:35;;;;;;;;;;;;;;;14.70;63.28;97942.16;7393531;19;19922;-77
2022/11/03 11:23:21;;;;;;;;;;;;;;;14.69;63.21;97932.50;7396703;19;19919;-77
2022/11/03 11:26:10;;;;;;;;;;;;;;;14.70;63.08;97919.00;7395984;19;19943;-79
2022/11/03 11:28:38;;;;;;;;;;;;;;;14.76;62.81;97917.41;7396294;19;19930;-79
2022/11/03 11:31:23;;;;;;;;;;;;;;;14.74;62.75;97918.63;7399936;19;19915;-80
2022/11/03 11:33:51;;;;;;;;;;;;;;;14.85;62.38;97916.25;7392799;19;21934;-79
2022/11/03 11:36:19;;;;;;;;;;;;;;;14.89;62.76;97912.19;7392269;19;19921;-80
2022/11/03 11:38:51;;;;;;;;;;;;;;;14.88;63.40;97907.88;7396987;19;19957;-79
2022/11/03 11:41:19;;;;;;;;;;;;;;;14.93;63.32;97908.13;7392687;19;19914;-79
2022/11/03 11:43:47;;;;;;;;;;;;;;;14.95;63.59;97910.56;7389996;19;19923;-78
2022/11/03 11:46:21;;;;;;;;;;;;;;;14.90;63.11;97899.66;7391074;19;19915;-79
2022/11/03 11:49:02;;;;;;;;;;;;;;;14.94;63.08;97900.94;7390808;19;19986;-78
2022/11/03 11:51:35;;;;;;;;;;;;;;;14.93;63.14;97902.78;7384667;19;19927;-79
2022/11/03 11:54:10;;;;;;;;;;;;;;;14.96;63.00;97884.78;7387497;19;19935;-78
2022/11/03 11:56:45;;;;;;;;;;;;;;;15.02;62.59;97878.66;7393662;19;19949;-78
2022/11/03 11:59:21;;;;;;;;;;;;;;;15.13;62.99;97867.44;7393091;19;19922;-78
2022/11/03 12:01:52;;;;;;;;;;;;;;;15.07;62.97;97869.06;7393804;19;19914;-77
2022/11/03 12:04:25;;;;;;;;;;;;;;;15.06;63.27;97863.91;7388096;19;21000;-78
2022/11/03 12:06:56;;;;;;;;;;;;;;;15.02;62.73;97866.16;7392449;19;19946;-80
2022/11/03 12:09:26;;;;;;;;;;;;;;;15.11;63.22;97864.16;7385856;19;19918;-79
2022/11/03 12:11:58;;;;;;;;;;;;;;;15.03;62.87;97857.13;7393104;19;19943;-76
2022/11/03 12:14:34;;;;;;;;;;;;;;;15.00;62.91;97846.88;7393931;19;19918;-78
2022/11/03 12:17:13;;;;;;;;;;;;;;;14.98;63.15;97838.28;7394288;19;19939;-78
2022/11/03 12:19:45;;;;;;;;;;;;;;;15.10;63.21;97830.53;7393516;19;19963;-78
2022/11/03 12:22:32;;;;;;;;;;;;;;;15.07;63.74;97821.09;7388860;19;19922;-78
2022/11/03 12:24:59;;;;;;;;;;;;;;;15.06;64.05;97810.63;7390691;19;19923;-78
2022/11/03 12:27:26;;;;;;;;;;;;;;;15.10;63.57;97817.22;7392561;19;19926;-79
2022/11/03 12:29:53;;;;;;;;;;;;;;;15.17;63.92;97812.75;7391944;19;19915;-78
2022/11/03 12:32:20;;;;;;;;;;;;;;;15.18;63.19;97814.38;7392840;19;19915;-79
2022/11/03 12:35:02;;;;;;;;;;;;;;;15.19;63.84;97809.88;7393516;19;20428;-78
2022/11/03 12:37:29;;;;;;;;;;;;;;;15.18;63.54;97798.41;7394071;19;20259;-79
2022/11/03 12:39:56;;;;;;;;;;;;;;;15.10;63.76;97804.72;7393492;19;19925;-79
2022/11/03 12:42:23;;;;;;;;;;;;;;;15.09;63.87;97791.63;7393230;19;20394;-79
2022/11/03 12:44:51;;;;;;;;;;;;;;;15.05;64.40;97793.00;7393272;19;19940;-80
2022/11/03 12:47:18;;;;;;;;;;;;;;;14.90;64.89;97779.81;7392916;19;19919;-77
2022/11/03 12:49:44;;;;;;;;;;;;;;;14.97;65.74;97774.53;7386291;19;19918;-78
2022/11/03 12:52:11;;;;;;;;;;;;;;;15.02;65.29;97770.25;7388604;19;19959;-79
2022/11/03 12:54:38;;;;;;;;;;;;;;;15.01;65.54;97771.28;7385178;19;19939;-78
2022/11/03 12:57:05;;;;;;;;;;;;;;;14.98;66.02;97761.03;7386514;19;19929;-77
2022/11/03 12:59:31;;;;;;;;;;;;;;;14.95;66.34;97755.25;7387781;19;19915;-77
2022/11/03 13:01:58;;;;;;;;;;;;;;;14.92;66.36;97746.66;7388381;19;20357;-78
2022/11/03 13:04:25;;;;;;;;;;;;;;;14.99;65.88;97737.88;7386240;19;19923;-78
2022/11/03 13:06:51;;;;;;;;;;;;;;;15.07;65.60;97748.34;7384955;19;20031;-78
2022/11/03 13:09:18;;;;;;;;;;;;;;;15.00;66.27;97734.19;7384651;19;20721;-76
2022/11/03 13:14:30;;;;;;;;;;;;;;;14.96;66.04;97724.97;7387195;19;19914;-78
2022/11/03 13:16:56;;;;;;;;;;;;;;;14.94;66.63;97711.84;7390791;19;20395;-77
2022/11/03 13:19:23;;;;;;;;;;;;;;;14.97;65.88;97705.28;7391082;19;19952;-77
2022/11/03 13:21:50;;;;;;;;;;;;;;;14.92;65.71;97700.56;7392647;19;20241;-77
2022/11/03 13:24:17;;;;;;;;;;;;;;;14.89;66.15;97701.78;7389937;19;19939;-76